Time;durP1;ratioP1;P1;durP2;ratioP2;P2;SDS_P1;SDS_P2;PMS_P1;PMS_P2;Temp;Humidity;BMP_temperature;BMP_pressure;BME280_temperature;BME280_humidity;BME280_pressure;Samples;Min_cycle;Max_cycle;Signal;HPM_P1;HPM_P2
2022/12/04 00:00:39;;;;;;;41.40;20.92;;;1.20;99.90;;;;;;7380430;32;20277;-59
2022/12/04 00:04:41;;;;;;;41.25;19.65;;;1.20;99.90;;;;;;7371039;32;20219;-59
2022/12/04 00:08:44;;;;;;;41.22;19.65;;;1.20;99.90;;;;;;7380201;32;20110;-58
2022/12/04 00:12:46;;;;;;;38.95;19.75;;;1.20;99.90;;;;;;7363696;32;20215;-59
2022/12/04 00:16:49;;;;;;;41.55;20.02;;;1.30;99.90;;;;;;7372652;32;20143;-58
2022/12/04 00:20:51;;;;;;;46.00;18.92;;;1.20;99.90;;;;;;7368806;32;20116;-59
2022/12/04 00:24:52;;;;;;;36.05;19.58;;;1.20;99.90;;;;;;7368585;32;20214;-59
2022/12/04 00:28:54;;;;;;;39.53;19.65;;;1.20;99.90;;;;;;7369190;32;20132;-59
2022/12/04 00:32:56;;;;;;;42.10;20.05;;;1.30;99.90;;;;;;7362424;32;20130;-59
2022/12/04 00:36:58;;;;;;;38.53;19.27;;;1.20;99.90;;;;;;7367529;32;20190;-58
2022/12/04 00:41:00;;;;;;;40.25;19.23;;;1.20;99.90;;;;;;7371827;32;20908;-58
2022/12/04 00:45:01;;;;;;;36.42;19.65;;;1.20;99.90;;;;;;7371917;32;20189;-58
2022/12/04 00:49:03;;;;;;;40.42;20.45;;;1.30;99.90;;;;;;7369101;32;20099;-58
2022/12/04 00:53:05;;;;;;;40.83;19.50;;;1.20;99.90;;;;;;7373037;32;20133;-58
2022/12/04 00:57:07;;;;;;;36.88;19.87;;;1.20;99.90;;;;;;7370458;32;20111;-58
2022/12/04 01:01:15;;;;;;;38.75;20.27;;;1.30;99.90;;;;;;7368622;32;20103;-59
2022/12/04 01:05:17;;;;;;;37.38;20.23;;;1.30;99.90;;;;;;7374315;32;20130;-59
2022/12/04 01:09:19;;;;;;;40.80;19.30;;;1.30;99.90;;;;;;7372692;32;20107;-59
2022/12/04 01:13:22;;;;;;;43.35;20.17;;;1.20;99.90;;;;;;7365762;32;20110;-59
2022/12/04 01:17:23;;;;;;;40.50;19.65;;;1.20;99.90;;;;;;7368067;32;20202;-59
2022/12/04 01:21:25;;;;;;;40.42;18.65;;;1.30;99.90;;;;;;7368939;32;20201;-59
2022/12/04 01:25:27;;;;;;;40.92;19.85;;;1.30;99.90;;;;;;7374306;32;20099;-59
2022/12/04 01:29:29;;;;;;;37.30;19.40;;;1.30;99.90;;;;;;7378663;32;20253;-59
2022/12/04 01:33:32;;;;;;;33.65;18.65;;;1.30;99.90;;;;;;7365747;32;20103;-59
2022/12/04 01:37:34;;;;;;;37.88;19.90;;;1.40;99.90;;;;;;7364354;32;20122;-60
2022/12/04 01:41:36;;;;;;;40.90;19.25;;;1.30;99.90;;;;;;7370364;32;20099;-59
2022/12/04 01:45:46;;;;;;;41.33;20.48;;;1.40;99.90;;;;;;7374926;32;20134;-59
2022/12/04 01:49:48;;;;;;;35.38;18.83;;;1.40;99.90;;;;;;7376524;32;20135;-59
2022/12/04 01:53:53;;;;;;;40.65;19.85;;;1.30;99.90;;;;;;7369616;32;20195;-59
2022/12/04 01:57:56;;;;;;;36.97;19.23;;;1.30;99.90;;;;;;7368903;32;20126;-59
2022/12/04 02:02:14;;;;;;;37.38;19.20;;;1.30;99.90;;;;;;7380874;32;20219;-59
2022/12/04 02:06:16;;;;;;;38.08;18.98;;;1.40;99.90;;;;;;7387951;32;20699;-59
2022/12/04 02:10:23;;;;;;;38.92;19.48;;;1.40;99.90;;;;;;7382747;32;20107;-58
2022/12/04 02:14:31;;;;;;;36.70;19.23;;;1.40;99.90;;;;;;7372341;32;20107;-59
2022/12/04 02:18:53;;;;;;;38.83;19.00;;;1.40;99.90;;;;;;7381790;32;20602;-59
2022/12/04 02:23:16;;;;;;;39.17;19.15;;;1.50;99.90;;;;;;7382152;32;20124;-59
2022/12/04 02:27:39;;;;;;;36.70;18.42;;;1.50;99.90;;;;;;7376210;32;20135;-58
2022/12/04 02:32:00;;;;;;;37.03;19.35;;;1.30;99.90;;;;;;7369786;32;20511;-59
2022/12/04 02:36:10;;;;;;;37.53;19.37;;;1.30;99.90;;;;;;7372698;32;20206;-59
2022/12/04 02:40:30;;;;;;;38.22;19.02;;;1.30;99.90;;;;;;7373157;32;20186;-59
2022/12/04 02:44:37;;;;;;;38.78;19.77;;;1.30;99.90;;;;;;7372384;32;20198;-59
2022/12/04 02:48:42;;;;;;;34.55;18.87;;;1.20;99.90;;;;;;7375856;32;20091;-58
2022/12/04 02:52:55;;;;;;;37.70;19.45;;;1.30;99.90;;;;;;7375927;32;20107;-59
2022/12/04 02:56:58;;;;;;;39.70;19.50;;;1.20;99.90;;;;;;7369211;32;20514;-59
2022/12/04 03:01:16;;;;;;;37.38;18.83;;;1.20;99.90;;;;;;7374112;32;20205;-58
2022/12/04 03:05:24;;;;;;;45.05;20.27;;;1.10;99.90;;;;;;7370808;32;20130;-59
2022/12/04 03:09:41;;;;;;;38.05;18.80;;;1.30;99.90;;;;;;7380671;32;20106;-59
2022/12/04 03:13:50;;;;;;;38.67;19.30;;;1.20;99.90;;;;;;7382636;32;20140;-59
2022/12/04 03:18:00;;;;;;;40.08;20.42;;;1.10;99.90;;;;;;7376125;32;20198;-59
2022/12/04 03:22:09;;;;;;;35.10;18.65;;;1.10;99.90;;;;;;7381521;32;20224;-59
2022/12/04 03:26:34;;;;;;;36.63;18.52;;;1.10;99.90;;;;;;7380311;32;20110;-58
2022/12/04 03:30:44;;;;;;;39.25;19.23;;;1.10;99.90;;;;;;7371911;32;20145;-58
2022/12/04 03:35:02;;;;;;;40.20;19.85;;;1.10;99.90;;;;;;7370696;32;20168;-58
2022/12/04 03:39:21;;;;;;;40.70;18.52;;;1.10;99.90;;;;;;7376711;32;20127;-59
2022/12/04 03:43:46;;;;;;;36.92;18.55;;;1.10;99.90;;;;;;7384552;32;20507;-58
2022/12/04 03:47:58;;;;;;;40.67;20.23;;;1.00;99.90;;;;;;7374707;32;20142;-58
2022/12/04 03:52:21;;;;;;;38.33;19.58;;;1.00;99.90;;;;;;7365503;32;20501;-58
2022/12/04 03:56:30;;;;;;;39.70;19.20;;;1.00;99.90;;;;;;7366834;32;20202;-58
2022/12/04 04:00:35;;;;;;;36.47;18.55;;;1.00;99.90;;;;;;7372975;32;20462;-59
2022/12/04 04:04:39;;;;;;;39.45;19.95;;;1.00;99.90;;;;;;7370187;32;20210;-58
2022/12/04 04:08:45;;;;;;;39.78;19.33;;;1.00;99.90;;;;;;7371392;32;20192;-58
2022/12/04 04:24:13;;;;;;;38.53;19.92;;;1.00;99.90;;;;;;7371335;32;20111;-58
2022/12/04 04:26:03;;;;;;;33.63;18.15;;;1.00;99.90;;;;;;7376033;32;20227;-58
2022/12/04 04:30:06;;;;;;;35.03;17.80;;;1.00;99.90;;;;;;7379290;32;20103;-58
2022/12/04 04:34:46;;;;;;;34.15;18.23;;;1.00;99.90;;;;;;7372618;32;20130;-58
2022/12/04 04:38:55;;;;;;;32.97;16.73;;;0.90;99.90;;;;;;7375397;32;20123;-59
2022/12/04 04:43:07;;;;;;;35.28;17.12;;;0.90;99.90;;;;;;7365777;32;20545;-58
2022/12/04 04:47:15;;;;;;;33.55;16.77;;;0.80;99.90;;;;;;7370893;32;20512;-58
2022/12/04 04:51:18;;;;;;;30.02;16.12;;;0.80;99.90;;;;;;7370125;32;20257;-58
2022/12/04 04:55:21;;;;;;;29.83;15.15;;;0.80;99.90;;;;;;7373461;32;20137;-59
2022/12/04 04:59:23;;;;;;;29.02;15.07;;;0.70;99.90;;;;;;7376031;32;20552;-59
2022/12/04 05:03:26;;;;;;;28.70;15.07;;;0.60;99.90;;;;;;7369817;32;20126;-59
2022/12/04 05:07:27;;;;;;;29.67;14.65;;;0.60;99.90;;;;;;7375991;32;20222;-59
2022/12/04 05:11:29;;;;;;;30.67;15.88;;;0.50;99.90;;;;;;7371787;32;20102;-58
2022/12/04 05:15:31;;;;;;;31.98;15.60;;;0.40;99.90;;;;;;7366227;32;20217;-60
2022/12/04 05:19:55;;;;;;;32.63;16.27;;;0.40;99.90;;;;;;7377165;32;20206;-59
2022/12/04 05:23:56;;;;;;;30.88;13.95;;;0.30;99.90;;;;;;7363929;32;20125;-59
2022/12/04 05:27:58;;;;;;;28.05;14.93;;;0.20;99.90;;;;;;7365172;32;20182;-59
2022/12/04 05:32:00;;;;;;;29.73;15.07;;;0.20;99.90;;;;;;7373678;32;20182;-59
2022/12/04 05:36:04;;;;;;;26.50;14.15;;;0.10;99.90;;;;;;7379783;32;20137;-59
2022/12/04 05:40:06;;;;;;;32.58;14.73;;;0.10;99.90;;;;;;7372327;32;20129;-59
2022/12/04 05:44:08;;;;;;;26.33;13.20;;;0.00;99.90;;;;;;7377868;32;20144;-58
2022/12/04 05:48:10;;;;;;;27.95;13.80;;;0.00;99.90;;;;;;7378788;32;20123;-59
2022/12/04 05:52:12;;;;;;;29.80;14.52;;;-0.10;99.90;;;;;;7378744;32;20536;-59
2022/12/04 05:56:14;;;;;;;28.55;14.05;;;-0.10;99.90;;;;;;7374633;32;20174;-59
2022/12/04 06:00:16;;;;;;;29.33;14.48;;;-0.20;99.90;;;;;;7378134;32;20103;-59
2022/12/04 06:04:18;;;;;;;26.50;13.43;;;-0.20;99.90;;;;;;7371036;32;20182;-58
2022/12/04 06:08:20;;;;;;;28.15;13.82;;;-0.20;99.90;;;;;;7380042;32;20245;-58
2022/12/04 06:12:22;;;;;;;27.42;14.00;;;-0.20;99.90;;;;;;7379699;32;20099;-59
2022/12/04 06:16:30;;;;;;;24.98;13.15;;;-0.20;99.90;;;;;;7377617;32;20103;-59
2022/12/04 06:20:32;;;;;;;26.58;13.62;;;-0.20;99.90;;;;;;7379268;32;20159;-59
2022/12/04 06:24:34;;;;;;;28.75;13.77;;;-0.20;99.90;;;;;;7376092;32;20122;-59
2022/12/04 06:28:36;;;;;;;23.73;12.75;;;-0.20;99.90;;;;;;7374739;32;20190;-59
2022/12/04 06:32:38;;;;;;;26.05;13.45;;;-0.10;99.90;;;;;;7380546;32;20982;-59
2022/12/04 06:36:39;;;;;;;27.90;14.23;;;0.00;99.90;;;;;;7364143;32;20245;-59
2022/12/04 06:40:42;;;;;;;25.25;13.80;;;0.10;99.90;;;;;;7370287;32;20108;-60
2022/12/04 06:44:43;;;;;;;26.12;15.25;;;0.20;99.90;;;;;;7378172;32;20194;-59
2022/12/04 06:48:45;;;;;;;24.48;13.62;;;0.30;99.90;;;;;;7374754;32;20106;-59
2022/12/04 06:52:47;;;;;;;25.35;14.32;;;0.40;99.90;;;;;;7380761;32;20106;-59
2022/12/04 06:56:49;;;;;;;27.20;13.40;;;0.40;99.90;;;;;;7373301;32;20125;-59
2022/12/04 07:00:51;;;;;;;21.00;12.23;;;0.40;99.90;;;;;;7372769;32;20133;-59
2022/12/04 07:04:56;;;;;;;21.52;12.00;;;0.50;99.90;;;;;;7380227;32;20137;-59
2022/12/04 07:09:10;;;;;;;21.20;11.88;;;0.60;99.90;;;;;;7378017;32;20107;-58
2022/12/04 07:13:11;;;;;;;18.87;10.75;;;0.70;99.90;;;;;;7380782;32;20512;-58
2022/12/04 07:17:13;;;;;;;21.42;10.85;;;0.70;99.90;;;;;;7367904;32;20194;-59
2022/12/04 07:21:20;;;;;;;20.42;11.55;;;0.70;99.90;;;;;;7370961;32;20220;-59
2022/12/04 07:25:22;;;;;;;17.25;10.63;;;0.80;99.90;;;;;;7377980;32;20193;-60
2022/12/04 07:29:24;;;;;;;20.27;11.50;;;0.80;99.90;;;;;;7378899;32;20138;-58
2022/12/04 07:33:26;;;;;;;17.48;10.60;;;0.80;99.90;;;;;;7368906;32;20525;-59
2022/12/04 07:37:27;;;;;;;16.55;9.93;;;0.80;99.90;;;;;;7370822;32;20546;-61
2022/12/04 07:41:29;;;;;;;15.57;9.55;;;0.90;99.90;;;;;;7374979;32;20111;-59
2022/12/04 07:45:31;;;;;;;16.83;9.95;;;0.80;99.90;;;;;;7372959;32;20545;-59
2022/12/04 07:49:32;;;;;;;15.85;10.02;;;0.80;99.90;;;;;;7380260;32;20625;-59
2022/12/04 07:53:35;;;;;;;15.68;9.27;;;0.80;99.90;;;;;;7374373;32;20130;-59
2022/12/04 07:57:37;;;;;;;16.08;9.95;;;0.90;99.90;;;;;;7368572;32;20666;-62
2022/12/04 08:01:38;;;;;;;16.73;10.27;;;0.90;99.90;;;;;;7377657;32;20123;-59
2022/12/04 08:05:40;;;;;;;15.95;10.38;;;1.00;99.90;;;;;;7379568;32;20126;-59
2022/12/04 08:09:42;;;;;;;14.82;9.48;;;1.00;99.90;;;;;;7378568;32;20130;-60
2022/12/04 08:13:44;;;;;;;16.45;9.98;;;1.00;99.90;;;;;;7371519;32;20220;-60
2022/12/04 08:17:45;;;;;;;17.65;10.13;;;1.10;99.90;;;;;;7372952;32;20222;-59
2022/12/04 08:21:47;;;;;;;13.52;8.95;;;1.10;99.90;;;;;;7368255;32;20098;-59
2022/12/04 08:25:49;;;;;;;14.95;9.20;;;1.00;99.90;;;;;;7372906;32;20220;-59
2022/12/04 08:29:50;;;;;;;14.82;9.57;;;1.10;99.90;;;;;;7380367;32;20124;-59
2022/12/04 08:33:55;;;;;;;13.43;8.90;;;1.10;99.90;;;;;;7374328;32;20178;-60
2022/12/04 08:37:57;;;;;;;15.38;9.15;;;1.00;99.90;;;;;;7372950;32;20107;-59
2022/12/04 08:41:59;;;;;;;15.15;9.07;;;1.00;99.90;;;;;;7379221;32;20103;-61
2022/12/04 08:46:04;;;;;;;14.13;8.90;;;1.10;99.90;;;;;;7379074;32;20107;-60
2022/12/04 08:50:06;;;;;;;14.75;9.15;;;1.10;99.90;;;;;;7367827;32;20122;-59
2022/12/04 08:54:11;;;;;;;13.30;8.77;;;1.00;99.90;;;;;;7376785;32;20143;-60
2022/12/04 08:58:13;;;;;;;12.90;8.65;;;1.00;99.90;;;;;;7372078;32;20099;-60
2022/12/04 09:02:15;;;;;;;12.70;8.18;;;1.00;99.90;;;;;;7370985;32;20243;-59
2022/12/04 09:06:18;;;;;;;13.75;8.77;;;1.20;99.90;;;;;;7375697;32;20111;-61
2022/12/04 09:10:19;;;;;;;14.85;10.02;;;1.20;99.90;;;;;;7375608;32;20114;-59
2022/12/04 09:14:24;;;;;;;15.60;8.82;;;1.20;99.90;;;;;;7380319;32;20119;-61
2022/12/04 09:18:26;;;;;;;15.25;9.55;;;1.20;99.90;;;;;;7380740;32;20148;-59
2022/12/04 09:22:28;;;;;;;16.27;9.48;;;1.20;99.90;;;;;;7376365;32;20526;-60
2022/12/04 09:26:49;;;;;;;14.55;9.15;;;1.20;99.90;;;;;;7371056;32;20149;-60
2022/12/04 09:31:04;;;;;;;14.15;8.40;;;1.20;99.90;;;;;;7379891;32;20194;-59
2022/12/04 09:35:06;;;;;;;12.63;8.38;;;1.20;99.90;;;;;;7373200;32;20130;-60
2022/12/04 09:39:09;;;;;;;14.80;8.77;;;1.30;99.90;;;;;;7378082;32;20125;-59
2022/12/04 09:43:16;;;;;;;13.88;8.90;;;1.40;99.90;;;;;;7374674;32;20129;-59
2022/12/04 09:47:35;;;;;;;14.23;8.68;;;1.40;99.90;;;;;;7378070;32;20259;-61
2022/12/04 09:51:39;;;;;;;14.25;8.77;;;1.40;99.90;;;;;;7377845;32;20209;-61
2022/12/04 09:55:57;;;;;;;13.00;8.52;;;1.50;99.90;;;;;;7374366;32;20526;-62
2022/12/04 09:59:58;;;;;;;16.55;9.18;;;1.30;99.90;;;;;;7373173;32;20107;-62
2022/12/04 10:04:00;;;;;;;14.20;8.88;;;1.40;99.90;;;;;;7379639;32;20125;-62
2022/12/04 10:08:21;;;;;;;17.77;10.05;;;1.50;99.90;;;;;;7379920;32;20103;-61
2022/12/04 10:12:39;;;;;;;20.42;11.07;;;1.40;99.90;;;;;;7377573;32;20118;-61
2022/12/04 10:16:47;;;;;;;17.42;11.05;;;1.50;99.90;;;;;;7375715;32;20107;-60
2022/12/04 10:21:16;;;;;;;18.45;11.18;;;1.40;99.90;;;;;;7373383;32;20475;-61
2022/12/04 10:25:21;;;;;;;16.83;10.27;;;1.30;99.90;;;;;;7382574;32;20541;-61
2022/12/04 10:29:33;;;;;;;15.45;9.38;;;1.40;99.90;;;;;;7369314;32;20458;-61
2022/12/04 10:33:41;;;;;;;15.10;9.07;;;1.50;99.90;;;;;;7373394;32;20198;-61
2022/12/04 10:37:44;;;;;;;16.50;10.43;;;1.60;99.90;;;;;;7374128;32;20115;-60
2022/12/04 10:42:04;;;;;;;14.77;9.57;;;1.60;99.90;;;;;;7375368;32;20129;-61
2022/12/04 10:46:12;;;;;;;17.67;10.25;;;1.50;99.90;;;;;;7374136;32;20862;-61
2022/12/04 10:50:23;;;;;;;17.40;10.07;;;1.60;99.90;;;;;;7366337;32;20206;-60
2022/12/04 10:54:32;;;;;;;14.32;9.40;;;1.60;99.90;;;;;;7372065;32;20231;-59
2022/12/04 10:58:34;;;;;;;15.50;9.20;;;1.60;99.90;;;;;;7369973;32;20632;-61
2022/12/04 11:02:38;;;;;;;14.35;9.25;;;1.70;99.90;;;;;;7374159;32;20129;-60
2022/12/04 11:06:40;;;;;;;14.55;9.38;;;1.70;99.90;;;;;;7374387;32;20171;-62
2022/12/04 11:10:42;;;;;;;14.15;9.02;;;1.70;99.90;;;;;;7377974;32;20131;-61
2022/12/04 11:14:44;;;;;;;16.25;9.32;;;1.70;99.90;;;;;;7379615;32;20232;-60
2022/12/04 11:18:49;;;;;;;16.40;10.18;;;1.70;99.90;;;;;;7374013;32;20515;-60
2022/12/04 11:22:55;;;;;;;15.77;10.07;;;1.60;99.90;;;;;;7373207;32;20091;-61
2022/12/04 11:26:57;;;;;;;17.75;10.60;;;1.60;99.90;;;;;;7375224;32;20137;-59
2022/12/04 11:31:02;;;;;;;24.33;13.50;;;1.60;99.90;;;;;;7376421;32;20240;-60
2022/12/04 11:35:16;;;;;;;15.75;10.35;;;1.70;99.90;;;;;;7377893;32;20257;-63
2022/12/04 11:39:24;;;;;;;20.05;11.70;;;1.60;99.90;;;;;;7372088;32;20553;-62
2022/12/04 11:43:28;;;;;;;30.75;14.82;;;1.60;99.90;;;;;;7378744;32;20459;-61
2022/12/04 11:47:32;;;;;;;25.80;14.52;;;1.60;99.90;;;;;;7373637;32;20107;-64
2022/12/04 11:52:03;;;;;;;18.08;11.02;;;1.70;99.90;;;;;;7374173;32;20537;-61
2022/12/04 11:56:23;;;;;;;16.65;10.82;;;1.60;99.90;;;;;;7369075;32;20205;-62
2022/12/04 12:00:26;;;;;;;16.37;10.68;;;1.70;99.90;;;;;;7373934;32;20784;-62
2022/12/04 12:04:42;;;;;;;15.38;10.32;;;1.70;99.90;;;;;;7371064;32;20186;-61
2022/12/04 12:09:07;;;;;;;19.60;10.80;;;1.80;99.90;;;;;;7367769;32;20103;-63
2022/12/04 12:13:12;;;;;;;16.42;9.70;;;1.70;99.90;;;;;;7382510;32;20137;-62
2022/12/04 12:17:24;;;;;;;16.02;9.27;;;1.70;99.90;;;;;;7375889;32;20107;-63
2022/12/04 12:21:35;;;;;;;16.62;9.85;;;1.80;99.90;;;;;;7381923;32;20133;-62
2022/12/04 12:26:05;;;;;;;18.02;10.48;;;1.80;99.90;;;;;;7378314;32;20202;-63
2022/12/04 12:30:22;;;;;;;15.77;9.98;;;1.80;99.90;;;;;;7381279;32;20237;-62
2022/12/04 12:34:34;;;;;;;15.02;9.82;;;1.80;99.90;;;;;;7378168;32;20107;-62
2022/12/04 12:38:46;;;;;;;16.83;10.13;;;1.90;99.90;;;;;;7374501;32;20103;-62
2022/12/04 12:43:12;;;;;;;14.82;9.60;;;1.90;99.90;;;;;;7368093;32;20110;-62
2022/12/04 12:47:18;;;;;;;14.98;10.18;;;1.90;99.90;;;;;;7377747;32;20110;-64
2022/12/04 12:51:45;;;;;;;14.82;9.73;;;1.90;99.90;;;;;;7376695;32;20096;-61
2022/12/04 12:55:52;;;;;;;17.08;10.65;;;2.10;99.90;;;;;;7368568;32;20129;-62
2022/12/04 13:00:14;;;;;;;15.20;10.15;;;2.10;99.90;;;;;;7360826;32;20157;-61
2022/12/04 13:04:22;;;;;;;16.42;9.30;;;2.10;99.90;;;;;;7376314;32;20123;-62
2022/12/04 13:08:28;;;;;;;16.02;9.82;;;2.10;99.90;;;;;;7370547;32;20554;-63
2022/12/04 13:12:40;;;;;;;15.60;9.50;;;2.30;99.90;;;;;;7378013;32;20223;-63
2022/12/04 13:17:02;;;;;;;15.50;9.95;;;2.30;99.90;;;;;;7376281;32;20140;-64
2022/12/04 13:21:06;;;;;;;16.58;10.10;;;2.20;99.90;;;;;;7378980;32;20598;-63
2022/12/04 13:25:27;;;;;;;17.60;10.15;;;2.20;99.90;;;;;;7375020;32;20431;-64
2022/12/04 13:29:41;;;;;;;18.42;10.85;;;2.20;99.90;;;;;;7367393;32;20111;-63
2022/12/04 13:33:55;;;;;;;19.52;10.80;;;2.10;99.90;;;;;;7377864;32;20126;-63
2022/12/04 13:38:33;;;;;;;17.75;10.68;;;2.20;99.90;;;;;;7371832;32;20221;-63
2022/12/04 13:42:35;;;;;;;20.35;11.85;;;2.20;99.90;;;;;;7368594;32;20106;-60
2022/12/04 13:46:53;;;;;;;21.00;12.25;;;2.30;99.90;;;;;;7374298;32;20201;-59
2022/12/04 13:51:29;;;;;;;22.08;11.85;;;2.30;99.90;;;;;;7367814;32;20220;-65
2022/12/04 13:55:36;;;;;;;24.42;12.57;;;2.40;99.90;;;;;;7357378;32;20103;-63
2022/12/04 13:59:39;;;;;;;27.77;12.55;;;2.30;99.90;;;;;;7378531;32;20108;-63
2022/12/04 14:03:45;;;;;;;22.98;12.68;;;2.30;99.90;;;;;;7374841;32;20107;-64
2022/12/04 14:08:06;;;;;;;23.92;13.18;;;2.30;99.90;;;;;;7384293;32;20099;-62
2022/12/04 14:12:13;;;;;;;24.40;12.55;;;2.30;99.90;;;;;;7376469;32;20204;-61
2022/12/04 14:16:22;;;;;;;23.60;12.98;;;2.40;99.90;;;;;;7368015;32;20206;-61
2022/12/04 14:20:30;;;;;;;26.23;13.30;;;2.40;99.90;;;;;;7374595;32;20248;-61
2022/12/04 14:24:38;;;;;;;25.90;14.45;;;2.40;99.90;;;;;;7376470;32;20141;-61
2022/12/04 14:28:42;;;;;;;28.12;15.68;;;2.30;99.90;;;;;;7378881;32;20811;-60
2022/12/04 14:32:46;;;;;;;27.67;14.73;;;2.30;99.90;;;;;;7370222;32;20125;-60
2022/12/04 14:36:50;;;;;;;22.17;14.18;;;2.30;99.90;;;;;;7376502;32;20107;-60
2022/12/04 14:40:57;;;;;;;25.83;14.13;;;2.30;99.90;;;;;;7376152;32;20209;-60
2022/12/04 14:45:01;;;;;;;26.15;14.98;;;2.30;99.90;;;;;;7377433;32;20140;-60
2022/12/04 14:49:24;;;;;;;24.77;14.25;;;2.30;99.90;;;;;;7367806;32;20123;-61
2022/12/04 14:53:37;;;;;;;25.12;13.75;;;2.40;99.90;;;;;;7379262;32;20364;-59
2022/12/04 14:57:56;;;;;;;23.77;13.77;;;2.40;99.90;;;;;;7374785;32;20119;-59
2022/12/04 15:01:58;;;;;;;20.77;12.52;;;2.40;99.90;;;;;;7379121;32;20149;-60
2022/12/04 15:06:03;;;;;;;20.70;12.98;;;2.40;99.90;;;;;;7374419;32;20156;-60
2022/12/04 15:14:50;;;;;;;20.60;12.77;;;2.40;99.90;;;;;;7376816;32;20125;-60
2022/12/04 15:18:57;;;;;;;22.02;13.05;;;2.30;99.90;;;;;;7369788;32;20534;-61
2022/12/04 15:23:01;;;;;;;20.27;11.48;;;2.30;99.90;;;;;;7374082;32;20523;-60
2022/12/04 15:27:05;;;;;;;20.80;13.48;;;2.30;99.90;;;;;;7372090;32;20115;-60
2022/12/04 15:31:15;;;;;;;20.73;12.35;;;2.30;99.90;;;;;;7377490;32;20095;-60
2022/12/04 15:35:25;;;;;;;23.23;12.65;;;2.30;99.90;;;;;;7368061;32;20188;-60
2022/12/04 15:39:29;;;;;;;18.90;12.15;;;2.40;99.90;;;;;;7374695;32;20111;-59
2022/12/04 15:43:37;;;;;;;21.05;12.35;;;2.30;99.90;;;;;;7368049;32;20107;-59
2022/12/04 15:47:41;;;;;;;19.30;12.50;;;2.40;99.90;;;;;;7375961;32;20439;-59
2022/12/04 15:51:45;;;;;;;19.73;12.75;;;2.40;99.90;;;;;;7371787;32;20125;-58
2022/12/04 15:55:52;;;;;;;22.62;12.88;;;2.30;99.90;;;;;;7374830;32;20102;-59
2022/12/04 15:59:56;;;;;;;19.83;12.25;;;2.40;99.90;;;;;;7372709;32;20111;-59
2022/12/04 16:03:58;;;;;;;21.92;12.45;;;2.40;99.90;;;;;;7369726;32;20510;-58
2022/12/04 16:08:33;;;;;;;23.42;13.27;;;2.50;99.90;;;;;;7375261;32;20153;-58
2022/12/04 16:12:34;;;;;;;20.02;13.18;;;2.40;99.90;;;;;;7371312;32;20106;-58
2022/12/04 16:16:40;;;;;;;19.77;12.50;;;2.40;99.90;;;;;;7375636;32;20558;-59
2022/12/04 16:20:42;;;;;;;24.50;14.73;;;2.40;99.90;;;;;;7376599;32;20127;-58
2022/12/04 16:24:44;;;;;;;18.08;11.88;;;2.40;99.90;;;;;;7380943;32;20113;-58
2022/12/04 16:28:46;;;;;;;22.50;13.55;;;2.50;99.90;;;;;;7375143;32;20665;-58
2022/12/04 16:32:48;;;;;;;20.23;12.93;;;2.40;99.90;;;;;;7363677;32;20107;-58
2022/12/04 16:36:49;;;;;;;18.50;12.55;;;2.40;99.90;;;;;;7366741;32;20453;-58
2022/12/04 16:40:51;;;;;;;20.85;12.85;;;2.40;99.90;;;;;;7379217;32;20098;-58
2022/12/04 16:44:53;;;;;;;25.17;13.73;;;2.40;99.90;;;;;;7380046;32;20115;-58
2022/12/04 16:48:55;;;;;;;21.90;14.75;;;2.50;99.90;;;;;;7374596;32;20178;-58
2022/12/04 16:52:57;;;;;;;22.13;13.02;;;2.40;99.90;;;;;;7375990;32;20111;-58
2022/12/04 16:56:59;;;;;;;20.98;13.50;;;2.40;99.90;;;;;;7376233;32;20132;-58
2022/12/04 17:01:01;;;;;;;22.62;14.27;;;2.40;99.90;;;;;;7371421;32;20205;-58
2022/12/04 17:05:03;;;;;;;23.52;14.25;;;2.40;99.90;;;;;;7376843;32;20119;-58
2022/12/04 17:09:06;;;;;;;22.73;13.98;;;2.40;99.90;;;;;;7365740;32;20234;-58
2022/12/04 17:13:07;;;;;;;22.20;13.25;;;2.50;99.90;;;;;;7370254;32;20599;-58
2022/12/04 17:17:09;;;;;;;22.73;13.57;;;2.60;99.90;;;;;;7374973;32;21924;-58
2022/12/04 17:21:12;;;;;;;20.67;13.27;;;2.50;99.90;;;;;;7372289;32;20110;-58
2022/12/04 17:25:15;;;;;;;23.02;14.30;;;2.50;99.90;;;;;;7375747;32;22261;-59
2022/12/04 17:29:16;;;;;;;22.60;13.77;;;2.60;99.90;;;;;;7373816;32;20838;-59
2022/12/04 17:33:18;;;;;;;25.12;15.15;;;2.60;99.90;;;;;;7379828;32;20121;-58
2022/12/04 17:37:20;;;;;;;25.85;14.57;;;2.60;99.90;;;;;;7362009;32;20115;-58
2022/12/04 17:41:22;;;;;;;26.30;15.82;;;2.60;99.90;;;;;;7372881;32;20146;-59
2022/12/04 17:45:24;;;;;;;28.83;16.12;;;2.70;99.90;;;;;;7373787;32;20221;-58
2022/12/04 17:49:25;;;;;;;25.58;15.68;;;2.70;99.90;;;;;;7373030;32;20489;-58
2022/12/04 17:53:27;;;;;;;22.58;14.43;;;2.70;99.90;;;;;;7384642;32;20211;-58
2022/12/04 17:57:29;;;;;;;21.30;13.77;;;2.70;99.90;;;;;;7375137;32;20130;-59
2022/12/04 18:01:31;;;;;;;22.50;13.90;;;2.70;99.90;;;;;;7378507;32;20118;-58
2022/12/04 18:05:33;;;;;;;20.88;13.30;;;2.60;99.90;;;;;;7366445;32;20215;-60
2022/12/04 18:09:35;;;;;;;19.55;13.02;;;2.70;99.90;;;;;;7375477;32;20138;-59
2022/12/04 18:13:37;;;;;;;22.27;14.13;;;2.70;99.90;;;;;;7381625;32;20236;-59
2022/12/04 18:17:39;;;;;;;24.58;13.65;;;2.50;99.90;;;;;;7376867;32;20111;-59
2022/12/04 18:21:41;;;;;;;22.25;13.88;;;2.50;99.90;;;;;;7375820;32;20119;-59
2022/12/04 18:25:53;;;;;;;23.62;14.48;;;2.50;99.90;;;;;;7377589;32;20189;-59
2022/12/04 18:29:55;;;;;;;25.52;15.13;;;2.60;99.90;;;;;;7374050;32;20110;-58
2022/12/04 18:33:57;;;;;;;22.45;14.23;;;2.50;99.90;;;;;;7371930;32;20244;-58
2022/12/04 18:37:59;;;;;;;28.33;14.87;;;2.60;99.90;;;;;;7373441;32;20257;-58
2022/12/04 18:42:01;;;;;;;28.45;17.37;;;2.70;99.90;;;;;;7374337;32;20133;-58
2022/12/04 18:46:06;;;;;;;25.17;14.98;;;2.70;99.90;;;;;;7378130;32;20173;-58
2022/12/04 18:50:08;;;;;;;49.35;27.92;;;2.60;99.90;;;;;;7378083;32;20103;-59
2022/12/04 18:54:19;;;;;;;27.90;17.70;;;2.60;99.90;;;;;;7367594;32;20129;-59
2022/12/04 18:58:21;;;;;;;28.65;17.12;;;2.60;99.90;;;;;;7366383;32;20562;-59
2022/12/04 19:02:23;;;;;;;28.98;17.45;;;2.60;99.90;;;;;;7370755;32;20103;-59
2022/12/04 19:06:27;;;;;;;31.23;17.40;;;2.60;99.90;;;;;;7374646;32;20229;-59
2022/12/04 19:10:29;;;;;;;32.13;18.62;;;2.60;99.90;;;;;;7370614;32;20164;-58
2022/12/04 19:14:31;;;;;;;33.30;18.67;;;2.60;99.90;;;;;;7379175;32;20594;-59
2022/12/04 19:18:33;;;;;;;32.92;19.52;;;2.50;99.90;;;;;;7374488;32;20149;-59
2022/12/04 19:22:35;;;;;;;36.30;19.92;;;2.50;99.90;;;;;;7372452;32;20107;-59
2022/12/04 19:26:38;;;;;;;35.47;19.80;;;2.60;99.90;;;;;;7370737;32;20280;-58
2022/12/04 19:30:39;;;;;;;33.80;19.27;;;2.60;99.90;;;;;;7365282;32;20531;-58
2022/12/04 19:34:41;;;;;;;33.65;18.98;;;2.60;99.90;;;;;;7370901;32;20111;-59
2022/12/04 19:38:43;;;;;;;33.70;18.73;;;2.50;99.90;;;;;;7368349;32;20129;-58
2022/12/04 19:42:44;;;;;;;35.20;20.20;;;2.60;99.90;;;;;;7375975;32;20103;-58
2022/12/04 19:46:46;;;;;;;37.13;20.85;;;2.60;99.90;;;;;;7384613;32;21362;-59
2022/12/04 19:50:48;;;;;;;35.20;20.83;;;2.60;99.90;;;;;;7375569;32;20106;-58
2022/12/04 19:54:50;;;;;;;33.53;19.30;;;2.60;99.90;;;;;;7374192;32;20099;-59
2022/12/04 19:58:52;;;;;;;39.15;20.52;;;2.60;99.90;;;;;;7365915;32;20107;-59
2022/12/04 20:02:54;;;;;;;120.30;70.20;;;2.60;99.90;;;;;;7376715;32;20554;-59
2022/12/04 20:06:56;;;;;;;84.97;54.35;;;2.60;99.90;;;;;;7373861;32;20232;-59
2022/12/04 20:11:06;;;;;;;40.17;23.42;;;2.60;99.90;;;;;;7377027;32;20118;-60
2022/12/04 20:15:08;;;;;;;95.87;56.90;;;2.60;99.90;;;;;;7383567;32;20106;-58
2022/12/04 20:19:13;;;;;;;42.90;24.90;;;2.60;99.90;;;;;;7378296;32;20173;-58
2022/12/04 20:23:15;;;;;;;41.35;22.48;;;2.60;99.90;;;;;;7376978;32;20131;-59
2022/12/04 20:27:16;;;;;;;34.58;18.87;;;2.50;99.90;;;;;;7373401;32;20233;-58
2022/12/04 20:31:27;;;;;;;79.45;49.15;;;2.60;99.90;;;;;;7368263;32;20530;-58
2022/12/04 20:35:29;;;;;;;43.25;23.87;;;2.50;99.90;;;;;;7373294;32;20129;-59
2022/12/04 20:39:30;;;;;;;37.35;20.62;;;2.40;99.90;;;;;;7371265;32;20551;-58
2022/12/04 20:43:33;;;;;;;57.60;33.28;;;2.40;99.90;;;;;;7368335;32;20107;-58
2022/12/04 20:47:35;;;;;;;38.13;20.80;;;2.40;99.90;;;;;;7378338;32;20129;-58
2022/12/04 20:51:39;;;;;;;44.20;24.63;;;2.40;99.90;;;;;;7375243;32;20241;-59
2022/12/04 20:55:40;;;;;;;90.72;52.25;;;2.30;99.90;;;;;;7374207;32;20099;-59
2022/12/04 20:59:42;;;;;;;83.07;50.55;;;2.40;99.90;;;;;;7375029;32;20464;-59
2022/12/04 21:03:45;;;;;;;42.92;22.10;;;2.50;99.90;;;;;;7371901;32;20129;-58
2022/12/04 21:07:47;;;;;;;39.00;22.62;;;2.50;99.90;;;;;;7369880;32;20216;-59
2022/12/04 21:11:51;;;;;;;46.25;24.80;;;2.50;99.90;;;;;;7371846;32;20160;-58
2022/12/04 21:16:03;;;;;;;62.28;28.58;;;2.50;99.90;;;;;;7380534;32;20115;-59
2022/12/04 21:20:06;;;;;;;44.22;22.45;;;2.40;99.90;;;;;;7377844;32;20106;-58